Pagina principale
METAR-TAF:

METAR-TAF

Aeroporti :

Aeroporto d'Engadina

Sankt Moritz, Svizzera

latitudine: 46-32-03N, longitudine: 9-53-03E, altezza: 1707 m

Osservazione

Il bollettino è stato emesso 14 minuti fa, alle 02:20 UTC
Vento 11 kt da nord
Temperature 7°C
Umidità 49%
Pressione 1023 hPa
Visibilità 10 km o più
Poco nuvoloso ad un'altezza di 5000 ft

METAR: LSZS 240220Z AUTO 35011KT 9999 FEW050 07/M03 Q1023

Ora: 03:34 (02:34 UTC)

Previsione

Il bollettino è stato emesso 12 ore e 9 minuti fa, alle 14:25 UTC
Previsione valida dal 23 alle 15 UTC al 23 alle 24 UTC
Vento 3 kt da direzioni variabili
Visibilità 10 km o più
Nuvoloso ad un'altezza di 6000 ft

TAF: LSZS 231425Z 2315/2324 VRB03KT 9999 BKN060 TX08/2315Z

Osservazioni e previsioni meteorologiche di più di 4000 aeroporti (messaggi METAR e TAF).

Le stazioni disponibili sono rappresentate dai dischi gialli e rossi sulla carta.

Puntare il mouse per vedere il nome della stazione.

Clicca sopra per visualizzare le osservazioni e previsioni meteorologiche.

Per cambiare la mappa : fare clic sui pulsanti verdi con una croce nera per ingrandire, il pulsante verde con un trattino per diminuire, o sulla freccia verde per le mappe adiacenti.


METAR-TAF: